Terminal Aerodrome Forecast
Issued by NWS Melbourne, FL

Home | Current Version | Previous Version | Text Only | Print | Product List | Glossary On
Versions: 1 2 3 4 5 6 7 8 9 10 11 12 13 14
000
FTUS42 KMLB 300500
TAFVRB
TAF
KVRB 300538Z 3006/3106 00000KT P6SM SCT150 BKN250
     FM301400 12007KT P6SM SCT035
     FM301700 11011KT P6SM VCTS SCT040CB BKN250
     FM302300 12005KT P6SM FEW050 BKN250=

USA.gov is the U.S. government's official web portal to all federal, state and local government web resources and services.